Terminal Aerodrome Forecast
Issued by NWS

Home | Current Version | Previous Version | Text Only | Print | Product List | Glossary Off
Versions: 1 2 3 4 5 6 7 8 9 10 11 12 13 14 15 16 17 18 19 20 21 22 23 24 25 26 27 28 29 30 31 32 33 34

000
FTUS43 KLOT 302200 AAD
TAFORD
TAF AMD
KORD 302200Z 3022/0124 03012KT P6SM SCT010 BKN040
      TEMPO 3023/0101 BKN010
     FM010300 04005KT P6SM OVC015
     FM011200 01005KT P6SM SCT015 BKN180
     FM011800 04009KT P6SM FEW025 BKN180=

USA.gov is the U.S. government's official web portal to all federal, state and local government web resources and services.